Time;durP1;ratioP1;P1;durP2;ratioP2;P2;SDS_P1;SDS_P2;PMS_P1;PMS_P2;Temp;Humidity;BMP_temperature;BMP_pressure;BME280_temperature;BME280_humidity;BME280_pressure;Samples;Min_cycle;Max_cycle;Signal;HPM_P1;HPM_P2
2023/09/07 07:32:09;;;;;;;;;8.50;8.00;;;;;;;;5090411;27;13369;-68
2023/09/07 07:34:34;;;;;;;;;8.25;8.25;;;;;;;;5087655;28;9883;-68
2023/09/07 07:37:00;;;;;;;;;5.00;5.00;;;;;;;;5087628;28;9795;-69
2023/09/07 07:39:25;;;;;;;;;7.00;7.00;;;;;;;;5087169;28;8847;-69
2023/09/07 07:41:50;;;;;;;;;7.00;7.00;;;;;;;;5086104;28;8816;-70
2023/09/07 07:44:16;;;;;;;;;7.00;7.00;;;;;;;;5084940;28;8927;-69
2023/09/07 07:46:41;;;;;;;;;8.33;7.33;;;;;;;;5078414;28;8880;-69
2023/09/07 07:49:06;;;;;;;;;8.00;7.67;;;;;;;;5087358;28;8907;-72
2023/09/07 07:51:32;;;;;;;;;12.50;12.00;;;;;;;;5087129;28;8812;-66
2023/09/07 07:53:57;;;;;;;;;45.50;34.75;;;;;;;;5087168;28;8784;-66
2023/09/07 07:56:23;;;;;;;;;7.67;7.67;;;;;;;;5087203;28;9576;-67
2023/09/07 07:58:48;;;;;;;;;16.75;12.75;;;;;;;;5086964;28;8788;-66
2023/09/07 08:01:17;;;;;;;;;12.25;11.50;;;;;;;;5087142;28;10387;-66
2023/09/07 08:03:43;;;;;;;;;16.75;12.75;;;;;;;;5068028;28;8808;-66
2023/09/07 08:06:08;;;;;;;;;8.33;8.00;;;;;;;;5087020;28;9342;-66
2023/09/07 08:08:34;;;;;;;;;7.67;7.67;;;;;;;;5083465;28;8831;-66
2023/09/07 08:11:04;;;;;;;;;15.00;15.00;;;;;;;;5086333;28;8820;-67
2023/09/07 08:13:29;;;;;;;;;18.00;17.00;;;;;;;;5018496;28;11057;-67
2023/09/07 08:15:55;;;;;;;;;8.33;8.00;;;;;;;;5045459;28;9519;-70
2023/09/07 08:18:20;;;;;;;;;8.00;8.00;;;;;;;;5043442;28;9629;-69
2023/09/07 08:20:45;;;;;;;;;7.33;7.33;;;;;;;;5045888;28;8829;-71
2023/09/07 08:23:11;;;;;;;;;7.67;7.67;;;;;;;;5045121;28;8811;-73
2023/09/07 08:25:38;;;;;;;;;8.33;6.00;;;;;;;;5045558;28;9537;-72
2023/09/07 08:28:05;;;;;;;;;10.00;8.25;;;;;;;;5045497;28;8849;-76
2023/09/07 08:30:30;;;;;;;;;21.67;17.67;;;;;;;;5045997;28;8831;-74
2023/09/07 08:32:56;;;;;;;;;6.00;6.00;;;;;;;;5045162;28;8916;-70
2023/09/07 08:35:26;;;;;;;;;5.00;5.00;;;;;;;;5045220;28;8815;-71
2023/09/07 08:37:51;;;;;;;;;7.75;7.50;;;;;;;;5046286;28;8784;-72
2023/09/07 08:40:18;;;;;;;;;7.00;7.00;;;;;;;;5044898;28;9004;-74
2023/09/07 08:42:43;;;;;;;;;5.60;5.60;;;;;;;;5037697;28;8826;-76
2023/09/07 08:45:08;;;;;;;;;7.50;6.50;;;;;;;;5031663;28;8815;-73
2023/09/07 08:47:35;;;;;;;;;12.67;11.00;;;;;;;;5032867;28;8819;-73
2023/09/07 08:50:01;;;;;;;;;5.60;4.80;;;;;;;;5032913;28;8882;-73
2023/09/07 08:52:26;;;;;;;;;5.75;5.75;;;;;;;;5031481;28;8816;-74
2023/09/07 08:54:52;;;;;;;;;6.00;6.00;;;;;;;;5032688;28;8792;-72
2023/09/07 08:57:18;;;;;;;;;5.50;5.50;;;;;;;;5031387;28;8835;-72
2023/09/07 08:59:43;;;;;;;;;6.40;5.40;;;;;;;;5032947;28;8788;-78
2023/09/07 09:02:09;;;;;;;;;13.75;13.75;;;;;;;;5031330;28;8858;-70
2023/09/07 09:04:35;;;;;;;;;6.00;5.60;;;;;;;;5031992;28;8823;-70
2023/09/07 09:07:04;;;;;;;;;8.00;8.00;;;;;;;;5031289;28;8835;-71
2023/09/07 09:09:29;;;;;;;;;17.60;14.40;;;;;;;;5032424;28;8803;-71
2023/09/07 09:11:54;;;;;;;;;5.50;5.50;;;;;;;;5065135;22;8999;-72
2023/09/07 09:14:21;;;;;;;;;8.75;8.75;;;;;;;;5051404;28;8826;-72
2023/09/07 09:16:50;;;;;;;;;10.60;10.60;;;;;;;;5051488;28;8790;-72
2023/09/07 09:19:15;;;;;;;;;10.40;9.40;;;;;;;;5051624;28;8929;-72
2023/09/07 09:21:41;;;;;;;;;4.75;4.75;;;;;;;;5033080;28;8953;-72
2023/09/07 09:24:09;;;;;;;;;6.00;6.00;;;;;;;;5033367;28;8818;-72
2023/09/07 09:26:36;;;;;;;;;3.80;3.80;;;;;;;;5051367;28;8917;-72
2023/09/07 09:29:01;;;;;;;;;11.80;11.40;;;;;;;;5051150;28;8821;-72
2023/09/07 09:31:27;;;;;;;;;5.25;4.25;;;;;;;;5050908;28;8818;-71
2023/09/07 09:33:52;;;;;;;;;6.50;6.50;;;;;;;;5051232;28;8802;-72
2023/09/07 09:36:17;;;;;;;;;8.00;8.00;;;;;;;;5051352;28;8790;-72
2023/09/07 09:38:47;;;;;;;;;4.50;4.50;;;;;;;;5050555;28;8909;-72
2023/09/07 09:41:12;;;;;;;;;4.40;4.00;;;;;;;;5051398;28;8806;-73
2023/09/07 09:43:38;;;;;;;;;6.25;5.75;;;;;;;;5051070;28;8795;-72
2023/09/07 09:46:04;;;;;;;;;6.00;6.00;;;;;;;;5047716;28;8818;-71
2023/09/07 09:48:31;;;;;;;;;4.20;4.20;;;;;;;;5050749;28;8807;-71
2023/09/07 09:50:57;;;;;;;;;10.40;10.40;;;;;;;;5032158;28;8869;-72
2023/09/07 09:53:23;;;;;;;;;9.25;9.25;;;;;;;;5049813;28;8786;-72
2023/09/07 09:55:48;;;;;;;;;4.20;4.20;;;;;;;;5050091;28;8812;-71
2023/09/07 09:58:14;;;;;;;;;6.75;6.75;;;;;;;;5050353;28;8889;-71
2023/09/07 10:00:42;;;;;;;;;3.00;2.00;;;;;;;;5050467;28;8907;-71
2023/09/07 10:03:13;;;;;;;;;5.00;5.00;;;;;;;;5050403;28;8824;-73
2023/09/07 10:05:38;;;;;;;;;4.00;4.00;;;;;;;;5050579;28;8810;-72
2023/09/07 10:08:08;;;;;;;;;5.50;5.50;;;;;;;;5049903;28;8995;-74
2023/09/07 10:10:35;;;;;;;;;5.40;5.40;;;;;;;;5050083;28;8916;-72
2023/09/07 10:13:01;;;;;;;;;4.60;4.60;;;;;;;;5050309;28;8787;-70
2023/09/07 10:15:27;;;;;;;;;7.50;6.25;;;;;;;;5049935;28;8878;-72
2023/09/07 10:18:10;;;;;;;;;4.50;4.50;;;;;;;;5049972;28;8794;-71
2023/09/07 10:20:49;;;;;;;;;2.40;1.80;;;;;;;;5049911;28;11525;-71
2023/09/07 10:23:14;;;;;;;;;5.00;5.00;;;;;;;;5049815;28;8806;-73
2023/09/07 10:25:40;;;;;;;;;3.50;3.50;;;;;;;;5050114;28;8817;-72
2023/09/07 10:28:05;;;;;;;;;5.00;5.00;;;;;;;;5049847;28;8802;-72
2023/09/07 10:30:32;;;;;;;;;5.00;5.00;;;;;;;;5031947;28;9018;-73
2023/09/07 10:32:58;;;;;;;;;6.20;6.20;;;;;;;;5031832;28;8810;-72
2023/09/07 10:35:25;;;;;;;;;4.25;4.25;;;;;;;;5049815;28;8798;-73
2023/09/07 10:37:50;;;;;;;;;5.40;5.40;;;;;;;;5049587;28;8849;-75
2023/09/07 10:40:19;;;;;;;;;6.00;6.00;;;;;;;;5049972;28;8822;-72
2023/09/07 10:42:45;;;;;;;;;6.80;6.80;;;;;;;;5048154;28;9576;-71
2023/09/07 10:45:16;;;;;;;;;4.75;4.75;;;;;;;;5046570;28;8829;-75
2023/09/07 10:47:45;;;;;;;;;7.00;5.00;;;;;;;;5044924;28;8803;-72
2023/09/07 10:50:12;;;;;;;;;3.00;3.00;;;;;;;;5047765;28;8818;-74
2023/09/07 10:52:38;;;;;;;;;6.00;6.00;;;;;;;;5048723;28;8815;-76
2023/09/07 10:55:03;;;;;;;;;5.00;5.00;;;;;;;;5048859;28;8884;-72
2023/09/07 10:57:28;;;;;;;;;5.25;5.00;;;;;;;;5019763;28;8938;-74
2023/09/07 10:59:55;;;;;;;;;6.75;6.75;;;;;;;;5026993;28;8808;-73
2023/09/07 11:02:20;;;;;;;;;5.00;5.00;;;;;;;;5011063;28;8946;-72
2023/09/07 11:04:46;;;;;;;;;8.00;8.00;;;;;;;;5011506;28;8931;-73
2023/09/07 11:07:11;;;;;;;;;6.00;5.67;;;;;;;;5024154;28;8980;-74
2023/09/07 11:09:40;;;;;;;;;6.67;6.67;;;;;;;;5049206;28;8794;-72
2023/09/07 11:12:06;;;;;;;;;7.75;7.00;;;;;;;;5049387;28;8807;-73
2023/09/07 11:14:31;;;;;;;;;8.00;8.00;;;;;;;;5027132;28;8817;-73
2023/09/07 11:16:56;;;;;;;;;6.33;6.33;;;;;;;;5045009;28;8858;-74
2023/09/07 11:19:22;;;;;;;;;6.33;6.00;;;;;;;;5046535;28;8872;-74
2023/09/07 11:21:47;;;;;;;;;9.00;9.00;;;;;;;;5047561;28;8842;-71
2023/09/07 11:24:13;;;;;;;;;7.33;6.67;;;;;;;;5048096;28;8815;-75
2023/09/07 11:26:45;;;;;;;;;7.00;7.00;;;;;;;;5048833;28;8810;-75
2023/09/07 11:29:15;;;;;;;;;7.25;7.25;;;;;;;;5030642;28;8888;-75
2023/09/07 11:31:40;;;;;;;;;21.25;18.75;;;;;;;;5049336;28;8867;-74
2023/09/07 11:34:08;;;;;;;;;40.67;34.00;;;;;;;;5049054;28;8806;-77
2023/09/07 11:36:34;;;;;;;;;6.00;6.00;;;;;;;;5049511;28;8810;-75
2023/09/07 11:38:59;;;;;;;;;6.00;6.00;;;;;;;;5045992;28;9016;-76
2023/09/07 11:41:25;;;;;;;;;7.33;7.33;;;;;;;;5047991;28;8834;-75
2023/09/07 11:43:50;;;;;;;;;7.67;7.67;;;;;;;;5045797;28;8845;-72
2023/09/07 11:46:15;;;;;;;;;6.33;5.33;;;;;;;;5048811;28;8937;-73
2023/09/07 11:48:41;;;;;;;;;7.00;7.00;;;;;;;;5048940;28;8883;-74
2023/09/07 11:51:08;;;;;;;;;5.67;5.67;;;;;;;;5048881;28;8937;-72
2023/09/07 11:53:33;;;;;;;;;6.00;6.00;;;;;;;;5039846;28;8948;-73
2023/09/07 11:55:58;;;;;;;;;16.33;14.00;;;;;;;;5028854;28;9593;-72
2023/09/07 11:58:26;;;;;;;;;8.33;8.00;;;;;;;;5028623;28;8797;-73
2023/09/07 12:00:51;;;;;;;;;7.75;6.75;;;;;;;;5028848;28;9644;-72
2023/09/07 12:03:17;;;;;;;;;6.67;5.00;;;;;;;;5031569;28;8814;-72
2023/09/07 12:05:44;;;;;;;;;8.67;8.67;;;;;;;;5039011;28;8846;-74
2023/09/07 12:08:09;;;;;;;;;6.50;5.00;;;;;;;;5038065;28;8872;-74
2023/09/07 12:10:35;;;;;;;;;6.00;6.00;;;;;;;;5048292;28;8814;-75
2023/09/07 12:13:00;;;;;;;;;7.33;7.33;;;;;;;;5048597;28;8822;-75
2023/09/07 12:15:26;;;;;;;;;6.00;6.00;;;;;;;;5048701;28;8995;-72
2023/09/07 12:17:54;;;;;;;;;6.25;5.25;;;;;;;;5050397;28;8810;-72
2023/09/07 12:20:19;;;;;;;;;4.75;4.75;;;;;;;;5052349;28;8830;-72
2023/09/07 12:22:45;;;;;;;;;5.00;5.00;;;;;;;;5051968;28;8814;-73
2023/09/07 12:25:10;;;;;;;;;7.00;7.00;;;;;;;;5052410;28;8822;-71
2023/09/07 12:27:36;;;;;;;;;7.33;7.33;;;;;;;;5052149;28;8848;-71
2023/09/07 12:30:02;;;;;;;;;7.00;7.00;;;;;;;;5052343;28;9060;-72
2023/09/07 12:32:28;;;;;;;;;8.00;7.00;;;;;;;;5052147;28;8952;-71
2023/09/07 12:34:53;;;;;;;;;7.00;7.00;;;;;;;;5051980;28;8814;-71
2023/09/07 12:37:19;;;;;;;;;7.00;6.33;;;;;;;;5051908;28;8810;-70
2023/09/07 12:39:44;;;;;;;;;8.00;6.00;;;;;;;;5051973;28;8828;-72
2023/09/07 12:42:09;;;;;;;;;9.33;8.33;;;;;;;;5034012;28;8861;-72
2023/09/07 12:44:35;;;;;;;;;6.67;6.33;;;;;;;;5052339;28;8810;-72
2023/09/07 12:47:00;;;;;;;;;8.00;8.00;;;;;;;;5052119;28;8841;-72
2023/09/07 12:49:25;;;;;;;;;8.00;6.67;;;;;;;;5048594;28;8837;-72
2023/09/07 12:51:50;;;;;;;;;8.00;8.00;;;;;;;;5052027;28;8829;-72
2023/09/07 12:54:17;;;;;;;;;5.33;5.33;;;;;;;;5051748;28;9533;-72
2023/09/07 12:56:42;;;;;;;;;8.00;8.00;;;;;;;;5051529;28;8810;-72
2023/09/07 12:59:08;;;;;;;;;7.33;6.33;;;;;;;;5051418;28;8791;-72
2023/09/07 13:01:34;;;;;;;;;7.33;6.67;;;;;;;;5051330;28;9563;-71
2023/09/07 13:03:59;;;;;;;;;5.33;5.33;;;;;;;;5051497;28;8787;-72
2023/09/07 13:06:25;;;;;;;;;8.00;8.00;;;;;;;;5051561;28;9536;-72
2023/09/07 13:08:50;;;;;;;;;6.00;6.00;;;;;;;;5033228;28;8876;-72
2023/09/07 13:11:15;;;;;;;;;7.00;7.00;;;;;;;;5051194;28;8848;-72
2023/09/07 13:13:41;;;;;;;;;7.00;6.67;;;;;;;;5051525;28;8912;-72
2023/09/07 13:16:06;;;;;;;;;7.00;7.00;;;;;;;;5049187;28;8830;-72
2023/09/07 13:18:32;;;;;;;;;7.00;7.00;;;;;;;;5044147;28;9516;-71
2023/09/07 13:21:00;;;;;;;;;7.00;7.00;;;;;;;;5051290;28;9532;-73
2023/09/07 13:23:29;;;;;;;;;8.50;8.50;;;;;;;;5032491;28;8837;-73
2023/09/07 13:25:55;;;;;;;;;13.25;12.00;;;;;;;;5050978;28;8821;-75
2023/09/07 13:28:21;;;;;;;;;6.75;6.75;;;;;;;;5050966;28;8799;-72
2023/09/07 13:30:46;;;;;;;;;7.00;7.00;;;;;;;;5051262;28;8920;-72
2023/09/07 13:33:11;;;;;;;;;6.67;6.67;;;;;;;;5051137;28;8790;-72
2023/09/07 13:35:36;;;;;;;;;7.00;7.00;;;;;;;;5051142;28;9663;-73
2023/09/07 13:38:02;;;;;;;;;8.00;8.00;;;;;;;;5032131;28;8857;-72
2023/09/07 13:40:29;;;;;;;;;6.00;6.00;;;;;;;;5050409;28;8842;-73
2023/09/07 13:42:54;;;;;;;;;7.25;7.25;;;;;;;;5051002;28;8807;-72
2023/09/07 13:45:20;;;;;;;;;9.00;9.00;;;;;;;;5050928;28;8837;-73
2023/09/07 13:47:46;;;;;;;;;7.00;7.00;;;;;;;;5050650;28;9655;-73
2023/09/07 13:50:11;;;;;;;;;9.00;8.00;;;;;;;;5050661;28;9015;-72
2023/09/07 13:52:36;;;;;;;;;8.33;8.33;;;;;;;;5050372;28;9612;-73
2023/09/07 13:55:01;;;;;;;;;14.67;10.33;;;;;;;;5049981;28;8925;-73
2023/09/07 13:57:27;;;;;;;;;9.00;9.00;;;;;;;;5050593;28;8829;-73
2023/09/07 13:59:52;;;;;;;;;8.67;8.67;;;;;;;;5050619;28;8905;-72
2023/09/07 14:02:17;;;;;;;;;8.00;8.00;;;;;;;;5050600;28;8814;-73
2023/09/07 14:04:43;;;;;;;;;10.00;9.67;;;;;;;;5050610;28;9487;-75
2023/09/07 14:07:08;;;;;;;;;10.00;9.67;;;;;;;;5032346;28;8802;-74
2023/09/07 14:09:33;;;;;;;;;10.67;10.67;;;;;;;;5050293;28;8806;-76
2023/09/07 14:11:59;;;;;;;;;9.00;8.00;;;;;;;;5050517;28;8927;-75
2023/09/07 14:14:24;;;;;;;;;5.33;5.33;;;;;;;;5050190;28;8907;-73
2023/09/07 14:16:50;;;;;;;;;8.67;8.67;;;;;;;;5050240;28;8836;-73
2023/09/07 14:19:15;;;;;;;;;7.75;7.75;;;;;;;;5050213;28;8887;-72
2023/09/07 14:21:41;;;;;;;;;6.67;6.67;;;;;;;;5050069;28;8822;-74
2023/09/07 14:24:06;;;;;;;;;7.00;7.00;;;;;;;;5049334;28;9529;-74
2023/09/07 14:26:32;;;;;;;;;9.67;9.00;;;;;;;;5050163;28;8896;-71
2023/09/07 14:28:57;;;;;;;;;8.33;8.33;;;;;;;;5049742;28;8912;-70
2023/09/07 14:31:22;;;;;;;;;7.67;7.67;;;;;;;;5049022;28;8914;-71
2023/09/07 14:33:48;;;;;;;;;6.00;6.00;;;;;;;;5049977;28;8828;-72
2023/09/07 14:36:13;;;;;;;;;7.33;6.33;;;;;;;;5049814;28;9529;-71
2023/09/07 14:38:41;;;;;;;;;9.00;7.67;;;;;;;;5049331;28;9529;-71
2023/09/07 14:41:10;;;;;;;;;8.75;6.75;;;;;;;;5047859;28;8818;-72
2023/09/07 14:43:36;;;;;;;;;8.25;8.00;;;;;;;;5049600;28;8956;-71
2023/09/07 14:46:01;;;;;;;;;10.33;7.00;;;;;;;;5049962;28;8837;-72
2023/09/07 14:48:26;;;;;;;;;7.33;7.00;;;;;;;;5049622;28;8822;-71
2023/09/07 14:50:51;;;;;;;;;7.67;7.67;;;;;;;;5032045;28;8837;-73
2023/09/07 14:53:17;;;;;;;;;7.00;7.00;;;;;;;;5031829;28;8830;-72
2023/09/07 14:55:43;;;;;;;;;7.33;7.00;;;;;;;;5049583;28;8814;-71
2023/09/07 14:58:09;;;;;;;;;7.67;6.67;;;;;;;;5049625;28;8903;-76
2023/09/07 15:00:35;;;;;;;;;11.00;8.00;;;;;;;;5040240;28;11420;-76
2023/09/07 15:03:00;;;;;;;;;5.00;5.00;;;;;;;;5047037;28;8861;-76
2023/09/07 15:05:25;;;;;;;;;5.33;5.33;;;;;;;;5049174;28;8913;-74
2023/09/07 15:07:51;;;;;;;;;8.00;7.00;;;;;;;;5049451;28;8921;-76
2023/09/07 15:10:16;;;;;;;;;6.00;6.00;;;;;;;;5048967;28;8818;-68
2023/09/07 15:12:41;;;;;;;;;6.00;6.00;;;;;;;;5048747;28;8949;-67
2023/09/07 15:15:07;;;;;;;;;7.00;7.00;;;;;;;;5049201;28;8959;-68
2023/09/07 15:17:37;;;;;;;;;7.00;6.00;;;;;;;;5048443;28;8798;-67
2023/09/07 15:20:03;;;;;;;;;9.50;7.00;;;;;;;;5048650;28;8810;-67
2023/09/07 15:22:29;;;;;;;;;7.50;6.75;;;;;;;;5048250;28;8814;-67
2023/09/07 15:24:55;;;;;;;;;7.00;7.00;;;;;;;;5047524;28;8813;-68
2023/09/07 15:27:20;;;;;;;;;8.00;8.00;;;;;;;;5030682;28;8883;-69
2023/09/07 15:29:46;;;;;;;;;11.00;8.00;;;;;;;;5030887;28;8790;-69
2023/09/07 15:32:11;;;;;;;;;6.67;6.00;;;;;;;;5048132;28;8842;-69
2023/09/07 15:34:37;;;;;;;;;7.00;7.00;;;;;;;;5048557;28;9011;-78
2023/09/07 15:37:05;;;;;;;;;8.00;7.00;;;;;;;;5048889;28;8817;-80
2023/09/07 15:39:31;;;;;;;;;7.75;7.75;;;;;;;;5045258;28;9837;-78
2023/09/07 15:41:56;;;;;;;;;7.33;7.33;;;;;;;;5048639;28;8830;-75
2023/09/07 15:44:22;;;;;;;;;8.00;8.00;;;;;;;;5049079;28;8840;-72
2023/09/07 15:46:48;;;;;;;;;22.33;18.33;;;;;;;;5048290;28;8798;-80
2023/09/07 15:49:13;;;;;;;;;7.67;7.67;;;;;;;;5048985;28;9527;-81
2023/09/07 15:51:38;;;;;;;;;7.67;7.67;;;;;;;;5048926;28;8810;-82
2023/09/07 15:54:04;;;;;;;;;8.00;8.00;;;;;;;;5053645;28;8786;-84
2023/09/07 15:56:30;;;;;;;;;7.75;7.75;;;;;;;;5053704;28;8810;-76
2023/09/07 15:58:55;;;;;;;;;10.00;9.00;;;;;;;;5052548;28;8799;-73
2023/09/07 16:01:20;;;;;;;;;8.00;7.00;;;;;;;;5051191;28;8842;-85
2023/09/07 16:03:46;;;;;;;;;10.33;9.00;;;;;;;;5033586;28;8802;-85
2023/09/07 16:06:11;;;;;;;;;9.00;7.67;;;;;;;;5053165;28;8786;-80
2023/09/07 16:08:36;;;;;;;;;10.00;10.00;;;;;;;;5053267;28;9003;-78
2023/09/07 16:11:02;;;;;;;;;11.67;10.33;;;;;;;;5052564;28;8890;-84
2023/09/07 16:13:27;;;;;;;;;10.67;9.67;;;;;;;;5052833;28;8814;-79
2023/09/07 16:15:53;;;;;;;;;11.00;10.00;;;;;;;;5052735;28;8786;-78
2023/09/07 16:18:19;;;;;;;;;9.00;7.67;;;;;;;;5052438;28;8836;-83
2023/09/07 16:20:45;;;;;;;;;12.75;10.00;;;;;;;;5053088;28;8838;-84
2023/09/07 16:23:10;;;;;;;;;11.00;10.00;;;;;;;;5052893;28;8812;-83
2023/09/07 16:25:36;;;;;;;;;9.67;9.67;;;;;;;;5052479;28;8915;-75
2023/09/07 16:28:01;;;;;;;;;10.33;10.00;;;;;;;;5052012;28;8818;-80
2023/09/07 16:30:27;;;;;;;;;11.67;8.00;;;;;;;;5052379;28;8810;-82
2023/09/07 16:32:53;;;;;;;;;10.33;9.33;;;;;;;;5052304;28;8943;-77
2023/09/07 16:35:18;;;;;;;;;10.00;10.00;;;;;;;;5051528;28;8851;-77
2023/09/07 16:37:43;;;;;;;;;13.67;11.33;;;;;;;;5051517;28;9075;-80
2023/09/07 16:40:10;;;;;;;;;11.00;11.00;;;;;;;;5051604;28;8787;-76
2023/09/07 16:42:36;;;;;;;;;11.75;10.25;;;;;;;;5051677;28;8810;-82
2023/09/07 16:45:01;;;;;;;;;7.67;7.67;;;;;;;;5051642;28;8795;-82
2023/09/07 16:47:26;;;;;;;;;11.00;10.00;;;;;;;;5051289;28;8786;-77
2023/09/07 16:49:51;;;;;;;;;11.33;11.33;;;;;;;;5051328;28;8871;-77
2023/09/07 16:52:17;;;;;;;;;10.33;10.33;;;;;;;;5051262;28;8822;-76
2023/09/07 16:54:42;;;;;;;;;11.67;11.67;;;;;;;;5050906;28;8819;-76
2023/09/07 16:57:08;;;;;;;;;12.00;11.33;;;;;;;;5051060;28;8833;-74
2023/09/07 16:59:33;;;;;;;;;14.67;13.00;;;;;;;;5051549;28;9016;-75
2023/09/07 17:01:58;;;;;;;;;12.00;12.00;;;;;;;;5051113;28;8942;-73
2023/09/07 17:04:24;;;;;;;;;11.00;11.00;;;;;;;;5032778;28;8868;-78
2023/09/07 17:06:50;;;;;;;;;11.67;11.67;;;;;;;;5033267;28;8810;-79
2023/09/07 17:09:15;;;;;;;;;10.67;10.67;;;;;;;;5050859;28;11498;-79
2023/09/07 17:11:41;;;;;;;;;13.00;13.00;;;;;;;;5050842;28;8876;-80
2023/09/07 17:16:29;;;;;;;;;12.50;12.25;;;;;;;;5103527;27;13496;-80
2023/09/07 17:18:54;;;;;;;;;13.00;11.67;;;;;;;;5106675;28;8819;-76
2023/09/07 17:21:19;;;;;;;;;13.00;12.33;;;;;;;;5106552;28;8784;-77
2023/09/07 17:46:24;;;;;;;;;66.00;53.25;;;;;;;;5096185;27;13628;-76
2023/09/07 18:11:52;;;;;;;;;12.50;11.50;;;;;;;;5063637;27;13597;-78
2023/09/07 18:32:39;;;;;;;;;20.25;20.25;;;;;;;;5103703;27;13661;-76
2023/09/07 18:36:41;;;;;;;;;23.67;23.33;;;;;;;;5103567;27;14273;-72
2023/09/07 18:46:34;;;;;;;;;12.67;12.67;;;;;;;;5103071;27;13532;-71
2023/09/07 18:51:38;;;;;;;;;21.00;21.00;;;;;;;;5123592;27;13534;-72
2023/09/07 18:54:03;;;;;;;;;17.00;15.33;;;;;;;;5126359;27;9448;-71
2023/09/07 18:56:57;;;;;;;;;15.67;14.67;;;;;;;;5103194;27;13489;-72
2023/09/07 19:00:28;;;;;;;;;19.00;18.33;;;;;;;;5103195;27;13416;-75
2023/09/07 19:05:35;;;;;;;;;21.50;20.75;;;;;;;;5103249;27;13542;-71
2023/09/07 19:08:01;;;;;;;;;22.33;20.67;;;;;;;;5106652;28;9343;-67
2023/09/07 19:11:38;;;;;;;;;17.33;17.00;;;;;;;;5062757;28;13514;-71
2023/09/07 19:14:27;;;;;;;;;14.33;12.67;;;;;;;;5096770;27;13507;-68
2023/09/07 19:17:20;;;;;;;;;15.00;14.00;;;;;;;;5098272;27;9531;-69
2023/09/07 19:19:46;;;;;;;;;16.67;16.33;;;;;;;;5065984;28;9145;-69
2023/09/07 19:23:26;;;;;;;;;18.67;18.33;;;;;;;;5102659;27;13502;-72
2023/09/07 19:25:52;;;;;;;;;15.67;14.67;;;;;;;;5104835;28;9299;-73
2023/09/07 19:29:45;;;;;;;;;25.50;25.00;;;;;;;;5083061;27;13527;-71
2023/09/07 19:32:11;;;;;;;;;31.75;28.50;;;;;;;;5085000;28;10509;-73
2023/09/07 19:35:39;;;;;;;;;14.00;13.00;;;;;;;;5083101;28;13495;-69
2023/09/07 19:38:04;;;;;;;;;20.67;18.67;;;;;;;;5086732;28;9067;-79
2023/09/07 19:41:12;;;;;;;;;22.50;21.50;;;;;;;;5103939;27;14300;-80
2023/09/07 19:43:47;;;;;;;;;20.00;20.00;;;;;;;;5107231;28;9512;-86
2023/09/07 19:46:15;;;;;;;;;32.50;30.00;;;;;;;;5102052;28;9527;-77
2023/09/07 19:48:41;;;;;;;;;17.00;16.67;;;;;;;;5105804;28;10781;-82
2023/09/07 19:51:07;;;;;;;;;30.75;28.50;;;;;;;;5105695;28;9629;-81
2023/09/07 19:53:34;;;;;;;;;20.00;20.00;;;;;;;;5107000;28;9534;-82
2023/09/07 20:20:14;;;;;;;;;16.00;16.00;;;;;;;;5165786;27;13392;-78
2023/09/07 20:22:39;;;;;;;;;15.00;14.67;;;;;;;;5169048;27;9324;-78
2023/09/07 20:25:11;;;;;;;;;15.00;14.00;;;;;;;;5170508;27;9226;-80
